createdAt,value
2023-11-30T00:00:09.402Z,10.88
2023-11-30T00:02:35.868Z,10.60
2023-11-30T00:05:02.384Z,12.77
2023-11-30T00:07:28.799Z,9.65
2023-11-30T00:09:55.332Z,11.35
2023-11-30T00:12:21.890Z,10.82
2023-11-30T00:14:48.429Z,11.75
2023-11-30T00:17:14.974Z,12.85
2023-11-30T00:19:41.467Z,12.32
2023-11-30T00:22:08.325Z,12.82
2023-11-30T00:24:34.816Z,14.25
2023-11-30T00:27:01.327Z,13.75
2023-11-30T00:29:27.815Z,11.00
2023-11-30T00:31:54.710Z,13.40
2023-11-30T00:34:21.320Z,13.05
2023-11-30T00:36:47.821Z,8.50
2023-11-30T00:39:14.354Z,8.55
2023-11-30T00:41:40.825Z,10.57
2023-11-30T00:44:07.672Z,9.95
2023-11-30T00:46:34.290Z,9.98
2023-11-30T00:49:00.794Z,14.95
2023-11-30T00:51:27.926Z,9.82
2023-11-30T00:53:54.493Z,12.45
2023-11-30T00:56:21.019Z,10.40
2023-11-30T00:58:47.525Z,13.98
2023-11-30T01:01:14.109Z,11.98
2023-11-30T01:03:40.748Z,16.10
2023-11-30T01:06:07.631Z,12.85
2023-11-30T01:08:34.238Z,20.30
2023-11-30T01:11:03.219Z,21.15
2023-11-30T01:13:29.753Z,13.63
2023-11-30T01:15:56.663Z,18.13
2023-11-30T01:18:23.236Z,30.25
2023-11-30T01:20:50.579Z,25.70
2023-11-30T01:23:17.173Z,31.13
2023-11-30T01:25:43.674Z,44.92
2023-11-30T01:28:10.190Z,14.55
2023-11-30T01:30:39.697Z,15.98
2023-11-30T01:33:06.292Z,16.85
2023-11-30T01:35:33.028Z,18.20
2023-11-30T01:37:59.502Z,25.90
2023-11-30T01:40:28.227Z,19.77
2023-11-30T01:42:54.679Z,21.33
2023-11-30T01:45:21.174Z,32.50
2023-11-30T01:47:48.621Z,32.28
2023-11-30T01:50:15.893Z,25.35
2023-11-30T01:52:42.759Z,21.30
2023-11-30T01:55:12.100Z,18.10
2023-11-30T01:57:40.024Z,28.08
2023-11-30T02:00:07.915Z,19.05
2023-11-30T02:02:39.306Z,24.50
2023-11-30T02:05:07.456Z,8.85
2023-11-30T02:07:33.938Z,11.88
2023-11-30T02:10:00.465Z,11.60
2023-11-30T02:12:27.196Z,15.55
2023-11-30T02:14:53.755Z,18.60
2023-11-30T02:17:20.259Z,17.23
2023-11-30T02:19:46.690Z,18.42
2023-11-30T02:22:15.103Z,113.00
2023-11-30T02:24:41.548Z,46.97
2023-11-30T02:27:08.049Z,48.60
2023-11-30T02:29:34.643Z,27.13
2023-11-30T02:32:01.168Z,20.85
2023-11-30T02:34:27.941Z,86.50
2023-11-30T02:36:54.434Z,81.38
2023-11-30T02:39:21.125Z,10.80
2023-11-30T02:41:47.641Z,28.88
2023-11-30T02:44:14.175Z,16.80
2023-11-30T02:46:41.005Z,26.40
2023-11-30T02:49:07.529Z,94.50
2023-11-30T02:51:34.559Z,20.95
2023-11-30T02:54:01.142Z,135.73
2023-11-30T02:56:27.684Z,30.73
2023-11-30T02:58:54.161Z,83.65
2023-11-30T03:01:20.677Z,76.03
2023-11-30T03:03:47.833Z,12.98
2023-11-30T03:06:16.310Z,59.17
2023-11-30T03:08:43.721Z,98.18
2023-11-30T03:11:10.194Z,80.07
2023-11-30T03:13:36.671Z,43.30
2023-11-30T03:16:03.346Z,29.55
2023-11-30T03:18:29.990Z,13.50
2023-11-30T03:20:56.580Z,15.02
2023-11-30T03:23:23.085Z,12.40
2023-11-30T03:25:49.565Z,14.10
2023-11-30T03:28:16.205Z,16.15
2023-11-30T03:30:42.819Z,15.25
2023-11-30T03:33:09.345Z,16.80
2023-11-30T03:35:35.876Z,14.90
2023-11-30T03:38:04.040Z,15.95
2023-11-30T03:40:30.475Z,14.05
2023-11-30T03:42:56.969Z,15.02
2023-11-30T03:45:23.500Z,13.95
2023-11-30T03:47:50.056Z,13.35
2023-11-30T03:50:16.502Z,11.30
2023-11-30T03:52:43.566Z,8.15
2023-11-30T03:55:10.103Z,7.32
2023-11-30T03:57:36.860Z,8.98
2023-11-30T04:00:03.684Z,5.72
2023-11-30T04:02:30.982Z,6.30
2023-11-30T04:04:57.605Z,5.22
2023-11-30T04:07:24.106Z,7.70
2023-11-30T04:09:50.751Z,6.25
2023-11-30T04:12:17.235Z,6.75
2023-11-30T04:14:43.694Z,4.72
2023-11-30T04:17:10.170Z,5.40
2023-11-30T04:19:36.733Z,8.18
2023-11-30T04:22:03.386Z,5.82
2023-11-30T04:24:29.929Z,10.82
2023-11-30T04:26:56.464Z,13.70
2023-11-30T04:29:22.954Z,10.55
2023-11-30T04:31:49.518Z,4.93
2023-11-30T04:34:15.996Z,12.77
2023-11-30T04:36:42.438Z,11.82
2023-11-30T04:39:09.000Z,6.93
2023-11-30T04:41:35.529Z,11.52
2023-11-30T04:44:02.489Z,12.07
2023-11-30T04:46:29.042Z,10.07
2023-11-30T04:48:55.770Z,13.55
2023-11-30T04:51:25.014Z,10.32
2023-11-30T04:53:51.687Z,11.40
2023-11-30T04:56:18.118Z,9.50
2023-11-30T04:58:45.448Z,9.63
2023-11-30T05:01:11.883Z,8.93
2023-11-30T05:03:38.621Z,10.07
2023-11-30T05:06:05.707Z,8.98
2023-11-30T05:08:32.436Z,9.25
2023-11-30T05:10:59.926Z,11.45
2023-11-30T05:13:26.428Z,11.90
2023-11-30T05:15:52.887Z,3.95
2023-11-30T05:18:19.478Z,10.55
2023-11-30T05:20:46.149Z,38.97
2023-11-30T05:23:12.776Z,18.30
2023-11-30T05:25:39.296Z,85.47
2023-11-30T05:28:06.148Z,74.18
2023-11-30T05:30:32.722Z,22.33
2023-11-30T05:32:59.310Z,39.83
2023-11-30T05:35:25.897Z,19.75
2023-11-30T05:37:52.351Z,62.92
2023-11-30T05:40:18.886Z,45.75
2023-11-30T05:42:45.348Z,27.45
2023-11-30T05:45:11.949Z,31.75
2023-11-30T05:47:38.410Z,26.83
2023-11-30T05:50:05.981Z,28.92
2023-11-30T05:52:32.595Z,16.80
2023-11-30T05:54:59.170Z,22.25
2023-11-30T05:57:25.749Z,15.68
2023-11-30T05:59:52.858Z,14.57
2023-11-30T06:02:19.927Z,38.85
2023-11-30T06:04:50.870Z,27.85
2023-11-30T06:07:18.598Z,19.67
2023-11-30T06:09:45.235Z,17.00
2023-11-30T06:12:11.843Z,18.83
2023-11-30T06:14:38.851Z,28.33
2023-11-30T06:17:05.581Z,18.92
2023-11-30T06:19:32.217Z,21.45
2023-11-30T06:21:58.697Z,22.40
2023-11-30T06:24:25.171Z,50.95
2023-11-30T06:26:51.726Z,27.98
2023-11-30T06:29:18.468Z,33.28
2023-11-30T06:31:45.289Z,47.03
2023-11-30T06:34:12.814Z,54.22
2023-11-30T06:36:39.381Z,23.95
2023-11-30T06:39:06.067Z,26.17
2023-11-30T06:41:32.740Z,50.10
2023-11-30T06:43:59.196Z,31.70
2023-11-30T06:46:25.731Z,16.77
2023-11-30T06:48:52.705Z,19.13
2023-11-30T06:51:19.374Z,107.30
2023-11-30T06:53:45.902Z,80.07
2023-11-30T06:56:13.207Z,49.45
2023-11-30T06:58:40.156Z,51.10
2023-11-30T07:01:07.567Z,15.00
2023-11-30T07:03:34.437Z,40.97
2023-11-30T07:06:10.302Z,35.88
2023-11-30T07:08:37.689Z,32.05
2023-11-30T07:11:08.760Z,104.18
2023-11-30T07:13:35.308Z,31.25
2023-11-30T07:16:01.872Z,24.50
2023-11-30T07:18:28.564Z,44.13
2023-11-30T07:20:55.096Z,15.82
2023-11-30T07:23:21.556Z,20.17
2023-11-30T07:25:48.055Z,18.63
2023-11-30T07:28:14.578Z,35.90
2023-11-30T07:30:41.694Z,43.70
2023-11-30T07:33:12.220Z,22.77
2023-11-30T07:35:39.770Z,50.08
2023-11-30T07:38:06.978Z,14.98
2023-11-30T07:40:33.425Z,18.92
2023-11-30T07:43:00.869Z,20.20
2023-11-30T07:45:29.136Z,31.13
2023-11-30T07:47:55.696Z,81.32
2023-11-30T07:50:22.158Z,24.73
2023-11-30T07:52:48.622Z,54.80
2023-11-30T07:55:15.279Z,15.63
2023-11-30T07:57:41.810Z,23.30
2023-11-30T08:00:08.645Z,16.55
2023-11-30T08:02:35.103Z,32.75
2023-11-30T08:05:01.933Z,15.82
2023-11-30T08:07:28.545Z,24.55
2023-11-30T08:09:55.368Z,14.40
2023-11-30T08:12:21.815Z,26.92
2023-11-30T08:14:48.260Z,38.80
2023-11-30T08:17:14.788Z,32.97
2023-11-30T08:19:41.699Z,45.60
2023-11-30T08:22:08.567Z,30.55
2023-11-30T08:24:46.758Z,16.05
2023-11-30T08:27:13.572Z,25.77
2023-11-30T08:29:40.126Z,98.03
2023-11-30T08:32:07.190Z,33.95
2023-11-30T08:34:33.885Z,12.55
2023-11-30T08:37:00.563Z,19.02
2023-11-30T08:39:28.535Z,44.25
2023-11-30T08:41:55.205Z,56.15
2023-11-30T08:44:24.524Z,94.32
2023-11-30T08:46:51.614Z,52.28
2023-11-30T08:49:18.131Z,39.00
2023-11-30T08:51:45.904Z,30.48
2023-11-30T08:54:12.786Z,13.15
2023-11-30T08:56:39.397Z,16.23
2023-11-30T08:59:05.934Z,13.25
2023-11-30T09:01:32.511Z,13.60
2023-11-30T09:04:02.340Z,18.02
2023-11-30T09:06:28.921Z,15.30
2023-11-30T09:08:55.454Z,12.68
2023-11-30T09:11:22.226Z,13.50
2023-11-30T09:13:48.724Z,13.38
2023-11-30T09:16:15.694Z,13.98
2023-11-30T09:18:42.365Z,100.18
2023-11-30T09:21:09.101Z,30.80
2023-11-30T09:23:35.717Z,43.28
2023-11-30T09:26:08.743Z,38.85
2023-11-30T09:28:35.359Z,102.47
2023-11-30T09:31:05.530Z,63.88
2023-11-30T09:33:32.033Z,100.38
2023-11-30T09:35:59.261Z,78.55
2023-11-30T09:38:26.424Z,29.73
2023-11-30T09:40:53.224Z,39.28
2023-11-30T09:43:20.675Z,46.85
2023-11-30T09:45:49.029Z,32.28
2023-11-30T09:48:15.838Z,55.20
2023-11-30T09:50:42.541Z,43.42
2023-11-30T09:53:09.843Z,54.22
2023-11-30T09:55:36.476Z,12.50
2023-11-30T09:58:03.730Z,25.42
2023-11-30T10:00:30.806Z,51.60
2023-11-30T10:02:57.807Z,21.67
2023-11-30T10:05:26.593Z,23.38
2023-11-30T10:07:53.376Z,24.48
2023-11-30T10:10:20.072Z,14.45
2023-11-30T10:12:46.945Z,34.60
2023-11-30T10:15:13.448Z,31.77
2023-11-30T10:17:40.017Z,13.02
2023-11-30T10:20:07.150Z,15.23
2023-11-30T10:22:33.675Z,16.35
2023-11-30T10:25:00.199Z,14.27
2023-11-30T10:27:31.097Z,16.70
2023-11-30T10:30:01.513Z,16.38
2023-11-30T10:32:28.110Z,20.85
2023-11-30T10:34:58.139Z,21.75
2023-11-30T10:37:27.421Z,20.08
2023-11-30T10:40:02.221Z,15.93
2023-11-30T10:42:28.982Z,50.03
2023-11-30T10:45:00.469Z,16.67
2023-11-30T10:47:29.178Z,87.40
2023-11-30T10:49:56.717Z,46.90
2023-11-30T10:52:23.666Z,34.42
2023-11-30T10:55:09.961Z,19.38
2023-11-30T10:57:36.611Z,25.23
2023-11-30T11:00:03.657Z,24.63
2023-11-30T11:02:37.374Z,23.70
2023-11-30T11:05:08.491Z,18.77
2023-11-30T11:07:35.447Z,17.83
2023-11-30T11:10:03.745Z,16.65
2023-11-30T11:12:35.063Z,20.38
2023-11-30T11:17:57.270Z,18.15
2023-11-30T11:20:31.452Z,21.60
2023-11-30T11:23:08.602Z,17.75
2023-11-30T11:25:41.093Z,45.92
2023-11-30T11:28:07.994Z,34.45
2023-11-30T11:30:45.596Z,39.42
2023-11-30T11:35:38.911Z,24.85
2023-11-30T11:38:05.425Z,43.78
2023-11-30T11:40:31.872Z,70.88
2023-11-30T11:42:59.546Z,189.85
2023-11-30T11:45:26.458Z,62.63
2023-11-30T11:47:53.082Z,18.02
2023-11-30T11:50:19.620Z,15.32
2023-11-30T11:52:46.190Z,20.20
2023-11-30T11:55:12.659Z,20.08
2023-11-30T11:57:41.292Z,29.52
2023-11-30T12:00:10.169Z,27.60
2023-11-30T12:02:37.476Z,25.10
2023-11-30T12:05:08.638Z,23.88
2023-11-30T12:07:35.347Z,22.63
2023-11-30T12:10:01.941Z,21.90
2023-11-30T12:12:32.818Z,20.92
2023-11-30T12:14:59.592Z,22.20
2023-11-30T12:17:26.152Z,21.15
2023-11-30T12:19:53.092Z,18.88
2023-11-30T12:22:19.525Z,21.70
2023-11-30T12:24:46.085Z,22.73
2023-11-30T12:27:12.631Z,24.08
2023-11-30T12:29:39.209Z,20.88
2023-11-30T12:32:06.034Z,20.67
2023-11-30T12:34:32.562Z,25.65
2023-11-30T12:36:59.133Z,23.75
2023-11-30T12:39:25.639Z,66.53
2023-11-30T12:41:52.391Z,102.03
2023-11-30T12:44:18.887Z,33.17
2023-11-30T12:46:45.389Z,76.25
2023-11-30T12:49:12.002Z,46.42
2023-11-30T12:51:38.603Z,53.63
2023-11-30T12:54:05.150Z,84.95
2023-11-30T12:56:31.615Z,109.32
2023-11-30T12:58:58.371Z,33.08
2023-11-30T13:01:24.923Z,81.70
2023-11-30T13:03:51.906Z,100.38
2023-11-30T13:06:18.612Z,42.13
2023-11-30T13:08:45.190Z,69.32
2023-11-30T13:11:11.673Z,55.97
2023-11-30T13:13:42.446Z,96.95
2023-11-30T13:16:11.731Z,54.60
2023-11-30T13:18:38.566Z,22.27
2023-11-30T13:21:05.399Z,56.60
2023-11-30T13:23:31.919Z,49.25
2023-11-30T13:25:58.332Z,36.25
2023-11-30T13:28:24.849Z,53.28
2023-11-30T13:30:52.228Z,35.85
2023-11-30T13:33:19.239Z,26.48
2023-11-30T13:35:46.271Z,28.23
2023-11-30T13:38:12.803Z,62.67
2023-11-30T13:40:39.407Z,105.20
2023-11-30T13:43:06.653Z,107.80
2023-11-30T13:45:33.181Z,83.35
2023-11-30T13:47:59.828Z,57.90
2023-11-30T13:50:31.182Z,107.20
2023-11-30T13:53:03.929Z,94.57
2023-11-30T13:55:30.784Z,86.47
2023-11-30T13:57:58.104Z,79.50
2023-11-30T14:00:24.771Z,49.25
2023-11-30T14:02:51.575Z,56.72
2023-11-30T14:05:18.261Z,21.67
2023-11-30T14:07:44.786Z,28.00
2023-11-30T14:10:11.272Z,23.70
2023-11-30T14:12:37.788Z,45.72
2023-11-30T14:15:09.417Z,51.72
2023-11-30T14:17:35.957Z,26.52
2023-11-30T14:20:02.495Z,38.50
2023-11-30T14:22:32.447Z,26.55
2023-11-30T14:24:59.773Z,45.08
2023-11-30T14:27:26.371Z,48.45
2023-11-30T14:29:53.251Z,24.45
2023-11-30T14:32:19.755Z,29.05
2023-11-30T14:34:46.997Z,21.75
2023-11-30T14:37:14.195Z,20.52
2023-11-30T14:39:40.677Z,23.00
2023-11-30T14:42:07.309Z,29.27
2023-11-30T14:44:34.007Z,26.13
2023-11-30T14:47:00.505Z,18.83
2023-11-30T14:49:27.037Z,18.45
2023-11-30T14:51:53.585Z,20.85
2023-11-30T14:54:20.497Z,19.42
2023-11-30T14:56:47.014Z,30.58
2023-11-30T14:59:13.880Z,33.42
2023-11-30T15:01:40.449Z,138.10
2023-11-30T15:04:07.102Z,48.90
2023-11-30T15:06:34.065Z,171.30
2023-11-30T15:09:00.534Z,71.95
2023-11-30T15:11:26.979Z,63.30
2023-11-30T15:13:53.438Z,102.80
2023-11-30T15:16:19.910Z,51.90
2023-11-30T15:18:46.433Z,59.25
2023-11-30T15:21:12.942Z,46.60
2023-11-30T15:23:39.424Z,43.65
2023-11-30T15:26:06.084Z,75.82
2023-11-30T15:28:34.940Z,56.70
2023-11-30T15:31:01.415Z,79.22
2023-11-30T15:33:27.974Z,74.25
2023-11-30T15:35:54.517Z,73.18
2023-11-30T15:38:34.507Z,59.78
2023-11-30T15:41:04.957Z,63.55
2023-11-30T15:43:31.450Z,30.85
2023-11-30T15:45:57.906Z,34.83
2023-11-30T15:48:24.432Z,35.55
2023-11-30T15:50:51.007Z,54.30
2023-11-30T15:53:17.404Z,85.03
2023-11-30T15:55:43.904Z,45.85
2023-11-30T15:58:10.394Z,41.20
2023-11-30T16:00:36.890Z,63.38
2023-11-30T16:03:03.633Z,52.47
2023-11-30T16:05:30.124Z,59.33
2023-11-30T16:07:56.559Z,86.53
2023-11-30T16:10:23.263Z,47.70
2023-11-30T16:12:49.799Z,55.10
2023-11-30T16:15:18.156Z,71.22
2023-11-30T16:17:44.950Z,77.85
2023-11-30T16:20:12.769Z,70.53
2023-11-30T16:22:40.656Z,123.38
2023-11-30T16:25:07.670Z,150.35
2023-11-30T16:27:34.283Z,107.93
2023-11-30T16:30:00.888Z,81.72
2023-11-30T16:32:27.455Z,114.93
2023-11-30T16:34:54.080Z,43.42
2023-11-30T16:37:20.731Z,64.20
2023-11-30T16:39:47.667Z,78.75
2023-11-30T16:42:14.588Z,80.60
2023-11-30T16:44:41.897Z,42.15
2023-11-30T16:47:08.714Z,57.28
2023-11-30T16:49:35.148Z,87.05
2023-11-30T16:52:01.610Z,47.22
2023-11-30T16:54:28.228Z,59.42
2023-11-30T16:56:54.661Z,59.33
2023-11-30T16:59:21.075Z,65.97
2023-11-30T17:01:47.594Z,71.50
2023-11-30T17:04:14.457Z,77.00
2023-11-30T17:06:41.333Z,70.63
2023-11-30T17:09:07.906Z,68.15
2023-11-30T17:11:34.359Z,68.95
2023-11-30T17:14:00.906Z,94.18
2023-11-30T17:16:27.455Z,47.80
2023-11-30T17:18:53.970Z,64.70
2023-11-30T17:21:20.507Z,48.50
2023-11-30T17:23:46.950Z,39.65
2023-11-30T17:26:13.792Z,67.47
2023-11-30T17:28:40.634Z,17.60
2023-11-30T17:31:07.663Z,16.70
2023-11-30T17:33:34.511Z,19.27
2023-11-30T17:36:01.218Z,15.80
2023-11-30T17:38:27.689Z,11.55
2023-11-30T17:40:54.127Z,14.43
2023-11-30T17:43:20.570Z,12.52
2023-11-30T17:45:47.105Z,11.15
2023-11-30T17:48:13.633Z,10.05
2023-11-30T17:50:40.090Z,12.52
2023-11-30T17:53:07.344Z,12.80
2023-11-30T17:55:33.820Z,20.83
2023-11-30T17:58:00.759Z,18.80
2023-11-30T18:00:30.031Z,14.38
2023-11-30T18:02:57.038Z,15.75
2023-11-30T18:05:23.628Z,15.00
2023-11-30T18:07:50.125Z,11.65
2023-11-30T18:10:16.627Z,13.65
2023-11-30T18:12:43.091Z,10.80
2023-11-30T18:15:09.856Z,15.00
2023-11-30T18:17:36.811Z,11.88
2023-11-30T18:20:03.525Z,27.50
2023-11-30T18:22:30.081Z,17.23
2023-11-30T18:24:56.670Z,14.85
2023-11-30T18:27:23.290Z,14.20
2023-11-30T18:29:49.875Z,10.63
2023-11-30T18:32:16.514Z,11.15
2023-11-30T18:34:42.951Z,8.77
2023-11-30T18:37:09.447Z,7.53
2023-11-30T18:39:35.916Z,7.90
2023-11-30T18:42:03.043Z,10.00
2023-11-30T18:44:29.484Z,8.65
2023-11-30T18:46:55.962Z,8.55
2023-11-30T18:49:22.498Z,9.32
2023-11-30T18:51:49.011Z,7.72
2023-11-30T18:54:17.166Z,8.20
2023-11-30T18:56:44.937Z,10.32
2023-11-30T18:59:13.031Z,10.30
2023-11-30T19:01:39.826Z,8.90
2023-11-30T19:04:06.402Z,10.05
2023-11-30T19:06:32.942Z,9.88
2023-11-30T19:08:59.608Z,11.57
2023-11-30T19:11:26.076Z,8.80
2023-11-30T19:13:53.095Z,12.13
2023-11-30T19:16:20.834Z,9.45
2023-11-30T19:18:47.914Z,8.70
2023-11-30T19:21:14.547Z,6.68
2023-11-30T19:23:41.002Z,10.18
2023-11-30T19:26:07.929Z,9.40
2023-11-30T19:28:35.432Z,12.38
2023-11-30T19:31:06.126Z,11.70
2023-11-30T19:33:32.923Z,9.82
2023-11-30T19:35:59.793Z,9.95
2023-11-30T19:38:26.247Z,8.93
2023-11-30T19:40:53.058Z,9.55
2023-11-30T19:43:19.507Z,9.93
2023-11-30T19:45:46.115Z,11.40
2023-11-30T19:48:12.648Z,11.85
2023-11-30T19:50:39.603Z,9.95
2023-11-30T19:53:06.032Z,14.90
2023-11-30T19:55:33.388Z,9.13
2023-11-30T19:57:59.923Z,10.30
2023-11-30T20:00:26.473Z,10.95
2023-11-30T20:02:52.995Z,13.95
2023-11-30T20:05:19.597Z,11.95
2023-11-30T20:07:46.089Z,12.45
2023-11-30T20:10:12.538Z,11.70
2023-11-30T20:12:41.142Z,9.75
2023-11-30T20:15:09.425Z,11.93
2023-11-30T20:17:36.006Z,11.85
2023-11-30T20:20:02.504Z,20.52
2023-11-30T20:22:29.086Z,16.38
2023-11-30T20:24:55.512Z,15.27
2023-11-30T20:27:22.122Z,9.73
2023-11-30T20:29:48.584Z,12.88
2023-11-30T20:32:15.218Z,13.07
2023-11-30T20:34:43.258Z,16.02
2023-11-30T20:37:09.932Z,16.80
2023-11-30T20:39:36.408Z,13.50
2023-11-30T20:42:02.913Z,19.80
2023-11-30T20:44:29.425Z,16.08
2023-11-30T20:46:55.868Z,20.38
2023-11-30T20:49:22.394Z,17.10
2023-11-30T20:51:48.966Z,16.55
2023-11-30T20:54:15.439Z,15.43
2023-11-30T20:56:42.043Z,17.55
2023-11-30T20:59:08.562Z,16.50
2023-11-30T21:01:35.246Z,15.80
2023-11-30T21:04:01.846Z,13.43
2023-11-30T21:06:28.399Z,23.35
2023-11-30T21:08:54.927Z,15.52
2023-11-30T21:11:21.423Z,15.48
2023-11-30T21:13:47.917Z,22.42
2023-11-30T21:16:18.092Z,19.85
2023-11-30T21:18:44.926Z,15.10
2023-11-30T21:21:11.496Z,17.80
2023-11-30T21:23:38.197Z,13.50
2023-11-30T21:26:04.941Z,17.17
2023-11-30T21:28:31.394Z,15.75
2023-11-30T21:30:57.884Z,16.67
2023-11-30T21:33:24.392Z,18.02
2023-11-30T21:35:50.915Z,18.90
2023-11-30T21:38:17.353Z,17.17
2023-11-30T21:40:43.940Z,22.02
2023-11-30T21:43:10.451Z,17.17
2023-11-30T21:45:36.970Z,17.70
2023-11-30T21:48:04.130Z,20.13
2023-11-30T21:50:30.887Z,19.08
2023-11-30T21:52:57.492Z,16.70
2023-11-30T21:55:24.072Z,16.83
2023-11-30T21:57:50.584Z,20.75
2023-11-30T22:00:17.526Z,19.25
2023-11-30T22:02:44.736Z,16.75
2023-11-30T22:05:15.683Z,19.13
2023-11-30T22:07:46.994Z,16.35
2023-11-30T22:10:13.548Z,21.10
2023-11-30T22:12:40.025Z,18.77
2023-11-30T22:15:07.036Z,18.77
2023-11-30T22:17:33.528Z,21.52
2023-11-30T22:20:00.204Z,15.60
2023-11-30T22:22:26.683Z,14.40
2023-11-30T22:24:53.175Z,16.25
2023-11-30T22:27:19.647Z,16.73
2023-11-30T22:29:46.200Z,17.92
2023-11-30T22:32:12.744Z,21.30
2023-11-30T22:34:39.209Z,21.88
2023-11-30T22:37:05.816Z,19.30
2023-11-30T22:39:32.413Z,15.60
2023-11-30T22:41:58.888Z,20.90
2023-11-30T22:44:25.438Z,20.15
2023-11-30T22:46:52.068Z,18.05
2023-11-30T22:49:19.551Z,18.95
2023-11-30T22:51:48.574Z,18.35
2023-11-30T22:54:15.549Z,19.55
2023-11-30T22:56:42.712Z,14.02
2023-11-30T22:59:09.322Z,17.42
2023-11-30T23:01:36.800Z,16.58
2023-11-30T23:04:04.237Z,13.93
2023-11-30T23:06:31.132Z,17.95
2023-11-30T23:08:57.767Z,15.20
2023-11-30T23:11:34.474Z,17.83
2023-11-30T23:14:01.595Z,13.00
2023-11-30T23:16:28.592Z,33.25
2023-11-30T23:18:55.200Z,18.98
2023-11-30T23:21:21.719Z,21.50
2023-11-30T23:23:48.225Z,16.10
2023-11-30T23:26:14.706Z,13.25
2023-11-30T23:28:41.407Z,15.02
2023-11-30T23:31:08.023Z,18.50
2023-11-30T23:33:34.789Z,13.25
2023-11-30T23:36:01.275Z,13.82
2023-11-30T23:38:27.977Z,14.30
2023-11-30T23:40:54.562Z,16.63
2023-11-30T23:43:21.276Z,13.98
2023-11-30T23:45:47.986Z,13.73
2023-11-30T23:48:14.734Z,20.27
2023-11-30T23:50:41.206Z,19.92
2023-11-30T23:53:07.720Z,15.93
2023-11-30T23:55:34.308Z,19.38
2023-11-30T23:58:01.062Z,16.13
